createdAt,value
2022-08-22T00:00:27.788Z,66.27
2022-08-22T00:05:57.410Z,65.83
2022-08-22T00:08:28.718Z,65.91
2022-08-22T00:11:25.725Z,65.86
2022-08-22T00:14:11.351Z,65.96
2022-08-22T00:16:46.740Z,66.51
2022-08-22T00:19:13.308Z,66.25
2022-08-22T00:21:57.546Z,66.26
2022-08-22T00:24:42.096Z,66.48
2022-08-22T00:27:14.932Z,66.50
2022-08-22T00:29:47.551Z,66.33
2022-08-22T00:32:23.816Z,66.56
2022-08-22T00:34:50.571Z,66.95
2022-08-22T00:37:21.631Z,66.79
2022-08-22T00:40:19.008Z,67.06
2022-08-22T00:43:03.414Z,67.25
2022-08-22T00:45:57.734Z,67.21
2022-08-22T00:48:47.423Z,67.40
2022-08-22T00:51:31.400Z,67.67
2022-08-22T00:54:35.452Z,67.60
2022-08-22T00:57:13.984Z,68.01
2022-08-22T00:59:43.890Z,68.08
2022-08-22T01:02:31.797Z,67.79
2022-08-22T01:05:03.145Z,67.53
2022-08-22T01:08:01.765Z,68.19
2022-08-22T01:10:51.232Z,68.05
2022-08-22T01:13:26.799Z,68.01
2022-08-22T01:16:17.975Z,68.21
2022-08-22T01:19:22.912Z,68.54
2022-08-22T01:22:27.891Z,68.52
2022-08-22T01:25:32.175Z,69.19
2022-08-22T01:28:36.322Z,69.53
2022-08-22T01:31:24.586Z,69.61
2022-08-22T01:34:27.573Z,69.41
2022-08-22T01:36:54.046Z,69.69
2022-08-22T01:39:53.439Z,69.83
2022-08-22T01:42:41.130Z,69.82
2022-08-22T01:45:33.136Z,70.31
2022-08-22T01:48:11.331Z,70.28
2022-08-22T01:50:53.921Z,70.59
2022-08-22T01:53:42.624Z,70.43
2022-08-22T01:56:18.839Z,70.10
2022-08-22T01:59:25.374Z,70.32
2022-08-22T02:02:12.261Z,70.88
2022-08-22T02:04:47.309Z,70.81
2022-08-22T02:07:24.173Z,70.50
2022-08-22T02:10:15.765Z,70.83
2022-08-22T02:12:42.217Z,71.12
2022-08-22T02:15:15.004Z,71.24
2022-08-22T02:18:05.845Z,71.27
2022-08-22T02:20:47.463Z,71.53
2022-08-22T02:23:30.063Z,71.36
2022-08-22T02:26:08.526Z,71.39
2022-08-22T02:28:57.161Z,71.14
2022-08-22T02:31:36.657Z,71.01
2022-08-22T02:34:17.925Z,70.59
2022-08-22T02:36:51.706Z,70.66
2022-08-22T02:39:47.400Z,70.95
2022-08-22T02:42:24.626Z,71.29
2022-08-22T02:45:17.714Z,71.19
2022-08-22T02:48:00.820Z,71.55
2022-08-22T02:50:38.258Z,71.74
2022-08-22T02:53:14.335Z,71.68
2022-08-22T02:55:50.568Z,71.53
2022-08-22T02:58:48.000Z,71.38
2022-08-22T03:01:33.257Z,71.24
2022-08-22T03:04:44.611Z,71.47
2022-08-22T03:07:20.126Z,71.55
2022-08-22T03:09:55.515Z,71.77
2022-08-22T03:12:56.969Z,71.29
2022-08-22T03:15:24.096Z,71.39
2022-08-22T03:18:15.916Z,71.42
2022-08-22T03:20:50.397Z,71.25
2022-08-22T03:23:38.999Z,71.01
2022-08-22T03:26:18.227Z,71.38
2022-08-22T03:29:01.548Z,70.83
2022-08-22T03:31:31.490Z,71.36
2022-08-22T03:34:16.654Z,71.06
2022-08-22T03:37:07.734Z,70.90
2022-08-22T03:39:37.357Z,70.92
2022-08-22T03:42:15.972Z,71.27
2022-08-22T03:45:03.614Z,71.30
2022-08-22T03:47:45.850Z,71.41
2022-08-22T03:50:49.938Z,71.05
2022-08-22T03:53:33.082Z,70.90
2022-08-22T03:56:33.115Z,70.61
2022-08-22T03:59:11.723Z,70.34
2022-08-22T04:02:42.237Z,70.23
2022-08-22T04:05:25.588Z,69.92
2022-08-22T04:08:00.939Z,69.50
2022-08-22T04:10:56.432Z,69.25
2022-08-22T04:13:38.344Z,69.58
2022-08-22T04:16:51.019Z,69.76
2022-08-22T04:19:38.700Z,69.63
2022-08-22T04:22:39.343Z,69.51
2022-08-22T04:25:41.243Z,69.59
2022-08-22T04:28:27.726Z,69.50
2022-08-22T04:31:10.227Z,69.35
2022-08-22T04:33:48.376Z,69.38
2022-08-22T04:36:26.426Z,69.13
2022-08-22T04:39:09.438Z,68.56
2022-08-22T04:41:48.211Z,67.77
2022-08-22T04:44:27.182Z,67.42
2022-08-22T04:47:23.987Z,67.61
2022-08-22T04:50:02.382Z,67.79
2022-08-22T04:52:41.193Z,66.99
2022-08-22T04:55:31.744Z,67.14
2022-08-22T04:58:33.078Z,66.74
2022-08-22T05:01:14.834Z,66.35
2022-08-22T05:03:51.210Z,66.35
2022-08-22T05:06:21.721Z,65.50
2022-08-22T05:08:53.709Z,65.04
2022-08-22T05:11:23.057Z,64.74
2022-08-22T05:14:02.191Z,64.72
2022-08-22T05:16:33.275Z,65.04
2022-08-22T05:19:12.102Z,64.15
2022-08-22T05:21:43.652Z,63.82
2022-08-22T05:24:18.380Z,63.97
2022-08-22T05:26:51.396Z,63.45
2022-08-22T05:29:25.498Z,63.90
2022-08-22T05:32:01.454Z,63.60
2022-08-22T05:34:34.295Z,63.54
2022-08-22T05:37:24.915Z,63.44
2022-08-22T05:39:57.826Z,62.61
2022-08-22T05:42:37.215Z,62.99
2022-08-22T05:45:11.547Z,62.80
2022-08-22T05:47:50.511Z,62.21
2022-08-22T05:50:23.787Z,62.30
2022-08-22T05:53:08.899Z,62.01
2022-08-22T05:55:50.474Z,61.68
2022-08-22T05:58:35.951Z,61.24
2022-08-22T06:01:22.998Z,60.56
2022-08-22T06:04:15.452Z,60.66
2022-08-22T06:06:56.773Z,60.91
2022-08-22T06:09:47.799Z,60.83
2022-08-22T06:12:22.022Z,60.08
2022-08-22T06:15:12.052Z,60.42
2022-08-22T06:17:46.776Z,59.44
2022-08-22T06:20:21.230Z,58.89
2022-08-22T06:22:53.696Z,58.82
2022-08-22T06:25:28.375Z,58.74
2022-08-22T06:27:58.174Z,58.59
2022-08-22T06:30:28.540Z,58.32
2022-08-22T06:33:02.628Z,57.52
2022-08-22T06:36:01.452Z,57.24
2022-08-22T06:38:34.964Z,57.92
2022-08-22T06:41:06.763Z,56.88
2022-08-22T06:43:43.752Z,57.08
2022-08-22T06:46:16.382Z,56.99
2022-08-22T06:48:44.218Z,56.94
2022-08-22T06:51:12.364Z,56.02
2022-08-22T06:53:48.195Z,55.24
2022-08-22T06:56:24.735Z,55.08
2022-08-22T06:58:56.513Z,55.35
2022-08-22T07:01:33.388Z,55.15
2022-08-22T07:04:07.088Z,54.31
2022-08-22T07:06:41.529Z,54.68
2022-08-22T07:09:37.036Z,53.90
2022-08-22T07:12:29.272Z,53.33
2022-08-22T07:15:09.832Z,52.39
2022-08-22T07:17:40.492Z,52.37
2022-08-22T07:20:19.318Z,52.39
2022-08-22T07:23:03.522Z,51.98
2022-08-22T07:25:31.895Z,51.43
2022-08-22T07:28:36.508Z,52.04
2022-08-22T07:31:32.481Z,52.33
2022-08-22T07:34:33.267Z,51.83
2022-08-22T07:37:09.059Z,50.89
2022-08-22T07:39:44.314Z,51.14
2022-08-22T07:42:16.786Z,50.34
2022-08-22T07:45:09.183Z,50.58
2022-08-22T07:47:57.348Z,50.25
2022-08-22T07:50:30.380Z,50.23
2022-08-22T07:53:13.629Z,49.88
2022-08-22T07:55:49.370Z,49.82
2022-08-22T07:58:17.808Z,49.95
2022-08-22T08:00:48.114Z,49.50
2022-08-22T08:03:15.095Z,48.62
2022-08-22T08:05:44.694Z,49.63
2022-08-22T08:08:19.870Z,49.07
2022-08-22T08:10:48.944Z,48.72
2022-08-22T08:13:23.177Z,48.51
2022-08-22T08:15:50.906Z,47.41
2022-08-22T08:18:22.052Z,48.07
2022-08-22T08:20:59.448Z,47.21
2022-08-22T08:23:30.254Z,46.68
2022-08-22T08:26:15.838Z,46.45
2022-08-22T08:28:46.690Z,45.98
2022-08-22T08:31:35.530Z,46.00
2022-08-22T08:34:11.598Z,44.94
2022-08-22T08:36:47.611Z,44.46
2022-08-22T08:39:35.745Z,43.93
2022-08-22T08:42:20.578Z,44.92
2022-08-22T08:45:05.037Z,44.89
2022-08-22T08:47:43.595Z,44.40
2022-08-22T08:50:35.636Z,44.22
2022-08-22T08:53:38.681Z,43.69
2022-08-22T08:56:25.592Z,43.70
2022-08-22T08:59:10.321Z,43.19
2022-08-22T09:02:13.699Z,42.92
2022-08-22T09:05:01.611Z,42.59
2022-08-22T09:08:00.782Z,42.29
2022-08-22T09:10:57.420Z,41.13
2022-08-22T09:13:40.929Z,41.06
2022-08-22T09:16:24.917Z,40.42
2022-08-22T09:19:10.725Z,40.00
2022-08-22T09:21:55.985Z,39.55
2022-08-22T09:24:52.400Z,38.77
2022-08-22T09:27:46.679Z,38.96
2022-08-22T09:30:18.028Z,38.38
2022-08-22T09:33:06.232Z,38.46
2022-08-22T09:36:17.861Z,39.18
2022-08-22T09:39:17.970Z,38.38
2022-08-22T09:42:15.097Z,37.47
2022-08-22T09:45:07.493Z,37.34
2022-08-22T09:47:44.575Z,37.31
2022-08-22T09:50:24.600Z,35.80
2022-08-22T09:53:26.602Z,35.37
2022-08-22T09:56:15.206Z,35.49
2022-08-22T09:58:48.519Z,35.77
2022-08-22T10:01:48.070Z,35.35
2022-08-22T10:04:37.486Z,34.71
2022-08-22T10:07:33.004Z,34.67
2022-08-22T10:10:15.700Z,33.74
2022-08-22T10:13:11.789Z,33.67
2022-08-22T10:16:00.358Z,34.04
2022-08-22T10:19:10.957Z,34.06
2022-08-22T10:21:46.717Z,32.52
2022-08-22T10:24:45.854Z,32.92
2022-08-22T10:27:31.736Z,32.74
2022-08-22T10:30:16.484Z,31.55
2022-08-22T10:33:15.255Z,31.86
2022-08-22T10:35:51.019Z,31.57
2022-08-22T10:38:46.488Z,31.34
2022-08-22T10:41:36.213Z,30.86
2022-08-22T10:44:16.429Z,30.73
2022-08-22T10:46:57.555Z,30.00
2022-08-22T10:49:37.770Z,28.83
2022-08-22T10:52:16.324Z,27.85
2022-08-22T10:55:05.624Z,28.87
2022-08-22T10:58:21.800Z,28.54
2022-08-22T11:01:01.076Z,27.64
2022-08-22T11:03:42.949Z,27.51
2022-08-22T11:06:29.244Z,28.24
2022-08-22T11:09:14.128Z,27.35
2022-08-22T11:11:43.632Z,26.16
2022-08-22T11:14:19.010Z,25.46
2022-08-22T11:17:23.674Z,25.34
2022-08-22T11:20:19.492Z,24.17
2022-08-22T11:23:13.340Z,23.06
2022-08-22T11:25:53.994Z,22.02
2022-08-22T11:28:38.720Z,22.33
2022-08-22T11:31:25.318Z,21.13
2022-08-22T11:34:02.105Z,21.22
2022-08-22T11:36:30.834Z,19.40
2022-08-22T11:39:17.903Z,18.84
2022-08-22T11:41:52.481Z,17.32
2022-08-22T11:44:27.676Z,16.67
2022-08-22T11:46:57.293Z,16.65
2022-08-22T11:49:42.733Z,15.11
2022-08-22T11:52:27.305Z,13.42
2022-08-22T11:55:15.494Z,12.93
2022-08-22T11:58:02.701Z,12.36
2022-08-22T12:00:40.170Z,11.98
2022-08-22T12:03:46.551Z,11.95
2022-08-22T12:06:54.446Z,11.15
2022-08-22T12:09:37.974Z,11.06
2022-08-22T12:12:25.687Z,10.30
2022-08-22T12:15:11.716Z,9.89
2022-08-22T12:18:12.730Z,9.15
2022-08-22T12:20:57.529Z,9.36
2022-08-22T12:23:40.742Z,8.71
2022-08-22T12:26:35.438Z,9.13
2022-08-22T12:29:18.978Z,9.12
2022-08-22T12:31:59.064Z,8.72
2022-08-22T12:34:55.991Z,8.82
2022-08-22T12:37:52.280Z,9.32
2022-08-22T12:40:38.278Z,8.61
2022-08-22T12:43:42.480Z,8.89
2022-08-22T12:46:23.994Z,8.64
2022-08-22T12:49:24.734Z,9.81
2022-08-22T12:52:28.870Z,12.00
2022-08-22T12:55:20.710Z,15.20
2022-08-22T12:58:11.535Z,17.35
2022-08-22T13:00:45.168Z,19.82
2022-08-22T13:03:21.328Z,21.29
2022-08-22T13:05:56.287Z,22.23
2022-08-22T13:08:42.032Z,23.54
2022-08-22T13:11:22.457Z,23.65
2022-08-22T13:13:56.451Z,25.16
2022-08-22T13:16:26.485Z,26.34
2022-08-22T13:18:57.102Z,27.07
2022-08-22T13:21:31.943Z,27.03
2022-08-22T13:24:12.473Z,28.12
2022-08-22T13:26:51.862Z,28.00
2022-08-22T13:29:26.095Z,27.29
2022-08-22T13:32:03.613Z,27.63
2022-08-22T13:34:45.994Z,28.22
2022-08-22T13:37:24.545Z,29.09
2022-08-22T13:39:58.586Z,28.72
2022-08-22T13:42:30.942Z,28.65
2022-08-22T13:45:02.465Z,29.21
2022-08-22T13:47:32.464Z,30.16
2022-08-22T13:50:19.347Z,30.14
2022-08-22T13:52:58.718Z,30.87
2022-08-22T13:56:01.171Z,31.28
2022-08-22T13:58:42.024Z,31.07
2022-08-22T14:01:09.605Z,31.40
2022-08-22T14:03:48.840Z,31.64
2022-08-22T14:06:35.342Z,31.37
2022-08-22T14:09:31.482Z,30.55
2022-08-22T14:12:22.442Z,30.92
2022-08-22T14:14:56.580Z,30.99
2022-08-22T14:17:31.374Z,31.06
2022-08-22T14:20:08.407Z,30.41
2022-08-22T14:22:40.832Z,31.37
2022-08-22T14:25:18.148Z,31.65
2022-08-22T14:27:52.406Z,31.85
2022-08-22T14:30:29.437Z,32.56
2022-08-22T14:33:05.573Z,32.40
2022-08-22T14:35:42.200Z,32.13
2022-08-22T14:38:39.490Z,32.41
2022-08-22T14:41:56.010Z,32.27
2022-08-22T14:44:40.372Z,32.90
2022-08-22T14:47:34.496Z,32.82
2022-08-22T14:50:11.351Z,32.51
2022-08-22T14:52:43.404Z,32.67
2022-08-22T14:55:16.410Z,32.97
2022-08-22T14:58:08.158Z,32.76
2022-08-22T15:00:38.350Z,33.56
2022-08-22T15:03:20.475Z,33.38
2022-08-22T15:06:03.841Z,33.29
2022-08-22T15:08:42.351Z,33.55
2022-08-22T15:11:27.144Z,33.29
2022-08-22T15:14:08.523Z,33.85
2022-08-22T15:16:53.578Z,34.05
2022-08-22T15:19:34.595Z,34.50
2022-08-22T15:22:25.691Z,33.54
2022-08-22T15:25:15.745Z,34.38
2022-08-22T15:28:05.224Z,34.27
2022-08-22T15:30:38.435Z,33.97
2022-08-22T15:33:16.222Z,34.13
2022-08-22T15:35:45.356Z,34.41
2022-08-22T15:38:36.277Z,34.30
2022-08-22T15:41:31.406Z,34.57
2022-08-22T15:44:38.807Z,34.48
2022-08-22T15:47:40.485Z,35.17
2022-08-22T15:50:15.943Z,35.57
2022-08-22T15:53:14.130Z,35.28
2022-08-22T15:56:13.087Z,35.58
2022-08-22T15:58:48.633Z,35.27
2022-08-22T16:01:25.397Z,35.37
2022-08-22T16:04:09.522Z,35.54
2022-08-22T16:06:53.225Z,35.35
2022-08-22T16:09:38.434Z,35.38
2022-08-22T16:12:10.815Z,35.76
2022-08-22T16:14:37.376Z,35.97
2022-08-22T16:17:26.114Z,36.54
2022-08-22T16:20:08.189Z,36.33
2022-08-22T16:22:58.590Z,37.05
2022-08-22T16:25:50.112Z,37.05
2022-08-22T16:28:57.877Z,36.73
2022-08-22T16:31:30.860Z,36.67
2022-08-22T16:34:21.048Z,37.37
2022-08-22T16:37:03.463Z,37.69
2022-08-22T16:39:44.145Z,37.91
2022-08-22T16:42:19.486Z,37.74
2022-08-22T16:45:05.124Z,38.07
2022-08-22T16:47:32.692Z,38.18
2022-08-22T16:50:03.575Z,38.37
2022-08-22T16:52:30.230Z,38.89
2022-08-22T16:55:07.026Z,38.56
2022-08-22T16:57:50.558Z,38.70
2022-08-22T17:00:39.757Z,39.17
2022-08-22T17:03:22.811Z,39.53
2022-08-22T17:06:23.140Z,40.24
2022-08-22T17:08:58.364Z,40.39
2022-08-22T17:11:40.755Z,40.24
2022-08-22T17:14:28.413Z,40.56
2022-08-22T17:17:16.578Z,41.13
2022-08-22T17:19:43.088Z,41.17
2022-08-22T17:22:28.475Z,41.04
2022-08-22T17:25:02.247Z,41.04
2022-08-22T17:27:38.506Z,41.10
2022-08-22T17:30:12.724Z,41.70
2022-08-22T17:33:03.368Z,42.09
2022-08-22T17:36:06.287Z,42.09
2022-08-22T17:39:19.372Z,42.36
2022-08-22T17:41:53.977Z,43.04
2022-08-22T17:44:38.789Z,42.89
2022-08-22T17:47:18.071Z,42.87
2022-08-22T17:50:05.509Z,42.79
2022-08-22T17:53:06.183Z,43.00
2022-08-22T17:55:56.735Z,43.46
2022-08-22T17:58:31.885Z,43.55
2022-08-22T18:01:13.555Z,44.08
2022-08-22T18:03:49.266Z,43.82
2022-08-22T18:06:30.522Z,44.01
2022-08-22T18:09:17.799Z,43.82
2022-08-22T18:11:58.322Z,44.08
2022-08-22T18:14:51.477Z,44.45
2022-08-22T18:17:34.879Z,44.65
2022-08-22T18:20:09.794Z,44.96
2022-08-22T18:22:45.893Z,44.69
2022-08-22T18:25:18.571Z,45.27
2022-08-22T18:27:56.094Z,45.22
2022-08-22T18:30:36.862Z,45.47
2022-08-22T18:33:29.444Z,45.63
2022-08-22T18:36:09.083Z,46.03
2022-08-22T18:38:49.559Z,45.98
2022-08-22T18:41:26.689Z,46.31
2022-08-22T18:43:54.909Z,46.83
2022-08-22T18:46:45.048Z,46.84
2022-08-22T18:49:20.972Z,46.63
2022-08-22T18:52:06.007Z,47.03
2022-08-22T18:55:06.243Z,46.98
2022-08-22T18:57:55.621Z,47.43
2022-08-22T19:00:54.913Z,47.86
2022-08-22T19:03:58.512Z,47.60
2022-08-22T19:07:04.872Z,47.47
2022-08-22T19:09:32.476Z,47.94
2022-08-22T19:12:31.886Z,48.14
2022-08-22T19:15:13.669Z,47.97
2022-08-22T19:17:58.865Z,48.50
2022-08-22T19:21:10.913Z,49.11
2022-08-22T19:23:40.372Z,48.81
2022-08-22T19:26:28.719Z,48.63
2022-08-22T19:28:59.909Z,49.28
2022-08-22T19:31:35.699Z,49.36
2022-08-22T19:34:28.255Z,49.48
2022-08-22T19:37:32.015Z,49.17
2022-08-22T19:40:05.139Z,49.46
2022-08-22T19:42:35.749Z,50.10
2022-08-22T19:45:07.975Z,50.02
2022-08-22T19:47:39.285Z,50.09
2022-08-22T19:50:18.091Z,50.10
2022-08-22T19:52:56.592Z,49.90
2022-08-22T19:55:38.183Z,50.09
2022-08-22T19:58:20.947Z,50.16
2022-08-22T20:01:20.542Z,50.10
2022-08-22T20:03:58.779Z,50.56
2022-08-22T20:06:50.832Z,50.47
2022-08-22T20:09:38.793Z,50.45
2022-08-22T20:12:23.704Z,50.50
2022-08-22T20:14:51.231Z,50.71
2022-08-22T20:17:26.672Z,51.18
2022-08-22T20:20:19.249Z,51.27
2022-08-22T20:22:52.946Z,51.63
2022-08-22T20:25:51.336Z,51.19
2022-08-22T20:29:17.628Z,51.60
2022-08-22T20:31:48.920Z,51.89
2022-08-22T20:34:20.157Z,51.72
2022-08-22T20:36:55.970Z,51.58
2022-08-22T20:39:49.848Z,51.92
2022-08-22T20:42:28.538Z,52.28
2022-08-22T20:44:55.840Z,52.05
2022-08-22T20:47:38.058Z,52.25
2022-08-22T20:50:15.140Z,52.29
2022-08-22T20:52:51.863Z,52.66
2022-08-22T20:55:31.768Z,53.20
2022-08-22T20:58:02.942Z,53.69
2022-08-22T21:00:44.814Z,53.19
2022-08-22T21:03:25.944Z,53.96
2022-08-22T21:05:52.736Z,54.29
2022-08-22T21:08:26.271Z,54.17
2022-08-22T21:11:21.350Z,53.86
2022-08-22T21:13:49.197Z,53.77
2022-08-22T21:16:31.633Z,53.38
2022-08-22T21:18:59.007Z,53.65
2022-08-22T21:21:31.394Z,53.46
2022-08-22T21:24:01.345Z,53.91
2022-08-22T21:26:36.591Z,53.98
2022-08-22T21:29:12.142Z,54.67
2022-08-22T21:31:52.630Z,54.71
2022-08-22T21:34:28.076Z,54.23
2022-08-22T21:36:59.659Z,54.75
2022-08-22T21:39:30.681Z,54.96
2022-08-22T21:41:59.977Z,54.98
2022-08-22T21:44:39.414Z,54.75
2022-08-22T21:47:30.644Z,54.76
2022-08-22T21:50:02.285Z,55.30
2022-08-22T21:52:32.890Z,55.77
2022-08-22T21:55:29.024Z,55.35
2022-08-22T21:58:35.200Z,55.02
2022-08-22T22:01:24.777Z,55.36
2022-08-22T22:03:52.080Z,55.90
2022-08-22T22:06:18.834Z,55.80
2022-08-22T22:08:46.222Z,55.74
2022-08-22T22:11:15.125Z,55.91
2022-08-22T22:13:42.468Z,55.93
2022-08-22T22:16:14.546Z,56.10
2022-08-22T22:18:41.194Z,55.88
2022-08-22T22:21:08.933Z,55.76
2022-08-22T22:23:35.605Z,55.75
2022-08-22T22:26:04.836Z,55.86
2022-08-22T22:28:40.341Z,56.28
2022-08-22T22:31:07.672Z,56.38
2022-08-22T22:33:38.542Z,56.44
2022-08-22T22:36:13.095Z,56.54
2022-08-22T22:38:40.893Z,56.13
2022-08-22T22:41:07.406Z,56.01
2022-08-22T22:43:34.200Z,55.74
2022-08-22T22:46:00.771Z,56.36
2022-08-22T22:48:27.386Z,56.60
2022-08-22T22:50:54.124Z,56.55
2022-08-22T22:53:37.972Z,56.68
2022-08-22T22:56:09.327Z,56.67
2022-08-22T22:58:37.442Z,56.30
2022-08-22T23:01:22.550Z,56.37
2022-08-22T23:03:54.630Z,56.54
2022-08-22T23:06:23.943Z,56.65
2022-08-22T23:08:51.189Z,56.98
2022-08-22T23:11:23.973Z,57.02
2022-08-22T23:13:51.127Z,57.05
2022-08-22T23:16:21.207Z,57.49
2022-08-22T23:18:48.619Z,57.45
2022-08-22T23:21:17.062Z,57.57
2022-08-22T23:23:44.263Z,57.81
2022-08-22T23:26:12.139Z,57.75
2022-08-22T23:28:39.111Z,57.48
2022-08-22T23:31:28.952Z,57.80
2022-08-22T23:33:56.075Z,57.54
2022-08-22T23:36:23.781Z,57.86
2022-08-22T23:38:52.047Z,58.12
2022-08-22T23:41:21.512Z,57.79
2022-08-22T23:43:52.106Z,58.28
2022-08-22T23:46:21.566Z,58.25
2022-08-22T23:48:48.826Z,58.54
2022-08-22T23:51:18.349Z,58.59
2022-08-22T23:53:50.299Z,58.52
2022-08-22T23:56:22.421Z,58.45
2022-08-22T23:58:50.255Z,58.39
